createdAt,value
2018-11-02T00:00:58.389Z,3.87
2018-11-02T00:03:27.001Z,3.73
2018-11-02T00:05:55.621Z,2.57
2018-11-02T00:08:24.208Z,2.87
2018-11-02T00:10:52.829Z,3.50
2018-11-02T00:13:21.424Z,3.27
2018-11-02T00:15:50.163Z,3.10
2018-11-02T00:18:18.798Z,4.10
2018-11-02T00:20:47.485Z,2.87
2018-11-02T00:23:16.154Z,4.20
2018-11-02T00:25:44.758Z,3.27
2018-11-02T00:28:13.358Z,3.17
2018-11-02T00:30:42.001Z,3.50
2018-11-02T00:33:10.601Z,4.00
2018-11-02T00:35:39.208Z,3.33
2018-11-02T00:38:07.882Z,3.10
2018-11-02T00:40:36.486Z,3.77
2018-11-02T00:43:05.212Z,3.30
2018-11-02T00:45:33.828Z,3.57
2018-11-02T00:48:02.441Z,3.37
2018-11-02T00:50:31.052Z,3.93
2018-11-02T00:52:59.648Z,3.13
2018-11-02T00:55:28.293Z,3.23
2018-11-02T00:57:56.927Z,3.20
2018-11-02T01:00:25.576Z,4.03
2018-11-02T01:02:54.171Z,3.87
2018-11-02T01:05:22.805Z,3.30
2018-11-02T01:07:51.528Z,3.50
2018-11-02T01:10:20.112Z,3.80
2018-11-02T01:12:48.716Z,3.20
2018-11-02T01:15:17.388Z,3.30
2018-11-02T01:17:46.088Z,3.53
2018-11-02T01:20:14.688Z,3.70
2018-11-02T01:22:43.337Z,4.00
2018-11-02T01:25:11.948Z,3.80
2018-11-02T01:27:40.585Z,3.50
2018-11-02T01:30:09.234Z,3.60
2018-11-02T01:32:37.868Z,4.33
2018-11-02T01:35:07.549Z,3.57
2018-11-02T01:37:36.185Z,3.87
2018-11-02T01:40:05.532Z,4.30
2018-11-02T01:42:34.192Z,3.53
2018-11-02T01:45:02.837Z,3.67
2018-11-02T01:47:31.414Z,3.47
2018-11-02T01:49:59.986Z,4.07
2018-11-02T01:52:28.572Z,4.23
2018-11-02T01:54:57.200Z,4.10
2018-11-02T01:57:25.765Z,4.00
2018-11-02T01:59:54.462Z,3.13
2018-11-02T02:02:23.038Z,3.70
2018-11-02T02:04:51.615Z,3.97
2018-11-02T02:07:20.228Z,3.70
2018-11-02T02:09:48.820Z,3.80
2018-11-02T02:12:17.402Z,4.63
2018-11-02T02:14:46.022Z,3.03
2018-11-02T02:17:14.592Z,3.53
2018-11-02T02:19:43.190Z,3.90
2018-11-02T02:22:11.788Z,3.67
2018-11-02T02:24:40.403Z,3.97
2018-11-02T02:27:09.038Z,4.60
2018-11-02T02:29:37.662Z,4.20
2018-11-02T02:32:06.308Z,4.20
2018-11-02T02:34:34.964Z,4.60
2018-11-02T02:37:03.595Z,4.30
2018-11-02T02:39:32.213Z,5.87
2018-11-02T02:42:00.968Z,3.80
2018-11-02T02:44:29.604Z,4.13
2018-11-02T02:46:58.248Z,4.67
2018-11-02T02:49:26.849Z,4.57
2018-11-02T02:51:55.520Z,4.93
2018-11-02T02:54:24.093Z,4.73
2018-11-02T02:56:52.668Z,4.33
2018-11-02T02:59:21.266Z,5.50
2018-11-02T03:01:49.874Z,4.30
2018-11-02T03:04:18.470Z,4.97
2018-11-02T03:06:47.126Z,4.30
2018-11-02T03:09:15.914Z,5.27
2018-11-02T03:11:44.668Z,4.93
2018-11-02T03:14:13.368Z,4.80
2018-11-02T03:16:41.989Z,4.10
2018-11-02T03:19:10.647Z,4.20
2018-11-02T03:21:39.843Z,4.67
2018-11-02T03:24:08.573Z,4.63
2018-11-02T03:26:37.458Z,5.80
2018-11-02T03:29:06.247Z,5.10
2018-11-02T03:31:34.912Z,4.70
2018-11-02T03:34:03.741Z,5.30
2018-11-02T03:36:34.177Z,5.00
2018-11-02T03:39:02.951Z,4.63
2018-11-02T03:41:31.696Z,5.50
2018-11-02T03:44:01.196Z,5.20
2018-11-02T03:46:29.831Z,4.50
2018-11-02T03:48:58.726Z,5.10
2018-11-02T03:51:27.401Z,4.53
2018-11-02T03:53:56.174Z,5.07
2018-11-02T03:56:25.978Z,4.30
2018-11-02T03:58:54.563Z,5.57
2018-11-02T04:01:23.236Z,5.13
2018-11-02T04:03:51.910Z,5.23
2018-11-02T04:06:20.571Z,4.87
2018-11-02T04:08:49.394Z,4.60
2018-11-02T04:11:18.084Z,6.10
2018-11-02T04:13:46.698Z,4.77
2018-11-02T04:16:15.379Z,4.90
2018-11-02T04:18:44.055Z,4.90
2018-11-02T04:21:12.763Z,5.90
2018-11-02T04:23:41.343Z,5.57
2018-11-02T04:26:10.183Z,5.03
2018-11-02T04:28:38.819Z,4.90
2018-11-02T04:31:07.567Z,5.40
2018-11-02T04:33:36.195Z,6.17
2018-11-02T04:36:05.944Z,5.30
2018-11-02T04:38:34.589Z,5.80
2018-11-02T04:41:03.298Z,5.13
2018-11-02T04:43:32.034Z,5.80
2018-11-02T04:46:00.835Z,6.10
2018-11-02T04:48:29.485Z,5.90
2018-11-02T04:50:58.221Z,6.13
2018-11-02T04:53:26.794Z,6.17
2018-11-02T04:55:55.490Z,6.23
2018-11-02T04:58:24.147Z,6.40
2018-11-02T05:00:52.745Z,6.40
2018-11-02T05:03:21.370Z,5.50
2018-11-02T05:05:50.017Z,5.37
2018-11-02T05:08:18.670Z,5.53
2018-11-02T05:10:47.273Z,6.77
2018-11-02T05:13:15.873Z,5.50
2018-11-02T05:15:44.480Z,5.67
2018-11-02T05:18:13.124Z,5.90
2018-11-02T05:20:41.812Z,5.90
2018-11-02T05:23:10.403Z,5.97
2018-11-02T05:25:38.988Z,6.10
2018-11-02T05:28:07.679Z,5.93
2018-11-02T05:30:36.285Z,6.90
2018-11-02T05:33:05.430Z,7.30
2018-11-02T05:35:34.056Z,7.40
2018-11-02T05:38:02.737Z,6.87
2018-11-02T05:40:34.427Z,7.90
2018-11-02T05:43:03.091Z,7.63
2018-11-02T05:45:31.756Z,6.50
2018-11-02T05:48:00.467Z,7.60
2018-11-02T05:50:29.139Z,7.40
2018-11-02T05:52:57.927Z,8.40
2018-11-02T05:55:26.580Z,9.07
2018-11-02T05:57:55.216Z,7.70
2018-11-02T06:00:23.963Z,8.13
2018-11-02T06:02:52.587Z,8.50
2018-11-02T06:05:21.250Z,7.93
2018-11-02T06:07:49.909Z,8.47
2018-11-02T06:10:18.537Z,7.80
2018-11-02T06:12:47.246Z,8.10
2018-11-02T06:15:15.957Z,7.67
2018-11-02T06:17:44.602Z,8.53
2018-11-02T06:20:13.279Z,7.27
2018-11-02T06:22:42.206Z,7.40
2018-11-02T06:25:10.978Z,6.93
2018-11-02T06:27:39.665Z,8.10
2018-11-02T06:30:09.397Z,8.73
2018-11-02T06:32:38.162Z,7.40
2018-11-02T06:35:08.353Z,7.13
2018-11-02T06:37:37.025Z,8.10
2018-11-02T06:40:06.058Z,7.33
2018-11-02T06:42:34.873Z,7.77
2018-11-02T06:45:03.615Z,7.53
2018-11-02T06:47:32.284Z,6.70
2018-11-02T06:50:01.046Z,6.83
2018-11-02T06:52:29.678Z,7.23
2018-11-02T06:54:58.344Z,7.67
2018-11-02T06:57:27.088Z,7.23
2018-11-02T06:59:56.620Z,7.30
2018-11-02T07:02:24.800Z,7.60
2018-11-02T07:04:53.422Z,7.50
2018-11-02T07:07:22.079Z,7.60
2018-11-02T07:09:50.563Z,6.50
2018-11-02T07:12:21.902Z,7.50
2018-11-02T07:14:50.589Z,8.07
2018-11-02T07:17:19.241Z,7.90
2018-11-02T07:19:48.749Z,7.10
2018-11-02T07:22:17.309Z,6.20
2018-11-02T07:24:46.097Z,7.00
2018-11-02T07:27:14.736Z,7.40
2018-11-02T07:29:43.248Z,7.20
2018-11-02T07:32:13.143Z,6.80
2018-11-02T07:34:41.641Z,6.70
2018-11-02T07:37:10.206Z,7.23
2018-11-02T07:39:38.985Z,6.90
2018-11-02T07:42:07.570Z,7.47
2018-11-02T07:44:42.231Z,7.10
2018-11-02T07:47:10.850Z,7.10
2018-11-02T07:49:39.447Z,7.33
2018-11-02T07:52:08.004Z,7.40
2018-11-02T07:54:36.750Z,7.83
2018-11-02T07:57:05.705Z,7.53
2018-11-02T07:59:34.261Z,7.33
2018-11-02T08:02:02.913Z,6.50
2018-11-02T08:04:31.385Z,7.20
2018-11-02T08:06:59.984Z,6.80
2018-11-02T08:09:28.585Z,6.67
2018-11-02T08:11:57.147Z,6.10
2018-11-02T08:14:25.702Z,6.03
2018-11-02T08:16:54.452Z,7.50
2018-11-02T08:19:23.635Z,7.23
2018-11-02T08:21:52.179Z,6.50
2018-11-02T08:24:20.776Z,6.40
2018-11-02T08:26:49.447Z,6.53
2018-11-02T08:29:18.232Z,7.47
2018-11-02T08:31:46.982Z,7.13
2018-11-02T08:34:15.563Z,6.43
2018-11-02T08:36:44.422Z,6.27
2018-11-02T08:39:13.453Z,7.60
2018-11-02T08:41:42.059Z,6.87
2018-11-02T08:44:11.105Z,7.60
2018-11-02T08:46:39.793Z,7.27
2018-11-02T08:49:08.340Z,7.37
2018-11-02T08:51:36.964Z,6.70
2018-11-02T08:54:05.663Z,6.53
2018-11-02T08:56:34.236Z,6.00
2018-11-02T08:59:02.834Z,6.27
2018-11-02T09:01:31.358Z,6.13
2018-11-02T09:04:00.001Z,6.27
2018-11-02T09:06:28.653Z,6.70
2018-11-02T09:08:57.975Z,6.23
2018-11-02T09:11:26.726Z,6.67
2018-11-02T09:13:55.436Z,6.40
2018-11-02T09:16:24.104Z,6.37
2018-11-02T09:18:52.828Z,5.80
2018-11-02T09:21:21.784Z,7.33
2018-11-02T09:23:50.497Z,6.20
2018-11-02T09:26:19.133Z,7.00
2018-11-02T09:28:47.777Z,6.63
2018-11-02T09:31:16.575Z,5.93
2018-11-02T09:33:45.350Z,6.30
2018-11-02T09:36:14.066Z,6.30
2018-11-02T09:38:42.859Z,6.67
2018-11-02T09:41:11.614Z,6.90
2018-11-02T09:43:40.306Z,5.87
2018-11-02T09:46:09.020Z,6.03
2018-11-02T09:48:37.796Z,5.57
2018-11-02T09:51:06.605Z,5.87
2018-11-02T09:53:35.290Z,5.70
2018-11-02T09:56:04.049Z,6.40
2018-11-02T09:58:32.808Z,5.97
2018-11-02T10:01:01.531Z,5.90
2018-11-02T10:03:30.245Z,6.37
2018-11-02T10:05:58.965Z,5.17
2018-11-02T10:08:30.640Z,6.63
2018-11-02T10:10:59.276Z,6.40
2018-11-02T10:13:27.911Z,5.80
2018-11-02T10:15:56.642Z,5.07
2018-11-02T10:18:25.551Z,5.97
2018-11-02T10:20:54.238Z,5.73
2018-11-02T10:23:23.187Z,6.67
2018-11-02T10:25:51.864Z,5.67
2018-11-02T10:28:20.669Z,5.73
2018-11-02T10:30:49.308Z,5.50
2018-11-02T10:33:18.090Z,6.37
2018-11-02T10:35:47.364Z,5.23
2018-11-02T10:38:16.135Z,5.63
2018-11-02T10:40:46.850Z,5.00
2018-11-02T10:43:17.155Z,5.70
2018-11-02T10:45:47.375Z,5.50
2018-11-02T10:48:16.300Z,5.60
2018-11-02T10:50:45.011Z,6.00
2018-11-02T10:53:13.677Z,5.70
2018-11-02T10:55:42.364Z,5.27
2018-11-02T10:58:11.073Z,4.70
2018-11-02T11:00:44.956Z,5.80
2018-11-02T11:03:13.563Z,5.43
2018-11-02T11:05:42.245Z,5.60
2018-11-02T11:08:10.922Z,5.80
2018-11-02T11:10:39.693Z,5.57
2018-11-02T11:13:08.808Z,4.97
2018-11-02T11:15:37.236Z,6.17
2018-11-02T11:18:06.720Z,5.60
2018-11-02T11:20:35.403Z,6.20
2018-11-02T11:23:04.068Z,6.90
2018-11-02T11:25:32.724Z,6.50
2018-11-02T11:28:01.391Z,5.30
2018-11-02T11:30:30.157Z,5.13
2018-11-02T11:32:58.839Z,5.07
2018-11-02T11:35:27.502Z,5.17
2018-11-02T11:37:56.304Z,4.20
2018-11-02T11:40:25.017Z,5.40
2018-11-02T11:42:53.804Z,4.97
2018-11-02T11:45:22.514Z,4.93
2018-11-02T11:47:51.162Z,5.10
2018-11-02T11:50:22.342Z,4.43
2018-11-02T11:52:52.100Z,4.40
2018-11-02T11:55:20.806Z,5.20
2018-11-02T11:57:49.471Z,4.63
2018-11-02T12:00:19.742Z,5.03
2018-11-02T12:02:49.371Z,4.57
2018-11-02T12:05:19.226Z,4.30
2018-11-02T12:07:48.039Z,4.73
2018-11-02T12:10:18.310Z,4.50
2018-11-02T12:12:46.946Z,4.23
2018-11-02T12:15:17.390Z,4.07
2018-11-02T12:17:46.590Z,4.37
2018-11-02T12:20:17.937Z,4.40
2018-11-02T12:22:47.350Z,3.80
2018-11-02T12:25:16.162Z,3.60
2018-11-02T12:27:44.956Z,4.30
2018-11-02T12:30:15.987Z,3.93
2018-11-02T12:32:44.630Z,4.30
2018-11-02T12:35:14.652Z,4.20
2018-11-02T12:37:43.329Z,4.27
2018-11-02T12:40:14.709Z,4.20
2018-11-02T12:42:43.977Z,4.20
2018-11-02T12:45:14.010Z,4.97
2018-11-02T12:47:43.225Z,3.50
2018-11-02T12:50:15.234Z,3.67
2018-11-02T12:52:44.794Z,3.70
2018-11-02T12:55:14.016Z,3.40
2018-11-02T12:57:43.093Z,4.50
2018-11-02T13:00:14.414Z,3.90
2018-11-02T13:02:44.015Z,4.70
2018-11-02T13:05:12.662Z,4.20
2018-11-02T13:07:41.419Z,4.70
2018-11-02T13:10:13.269Z,4.27
2018-11-02T13:12:41.946Z,4.53
2018-11-02T13:15:12.542Z,5.60
2018-11-02T13:17:42.078Z,5.30
2018-11-02T13:20:11.354Z,4.17
2018-11-02T13:22:40.747Z,4.60
2018-11-02T13:25:11.395Z,5.40
2018-11-02T13:27:40.360Z,4.70
2018-11-02T13:30:10.048Z,5.13
2018-11-02T13:32:38.895Z,5.93
2018-11-02T13:35:10.517Z,5.33
2018-11-02T13:37:39.946Z,4.40
2018-11-02T13:40:09.724Z,4.70
2018-11-02T13:42:38.757Z,4.73
2018-11-02T13:45:08.322Z,4.43
2018-11-02T13:47:36.965Z,4.23
2018-11-02T13:50:06.251Z,4.80
2018-11-02T13:52:35.690Z,4.37
2018-11-02T13:55:04.505Z,4.67
2018-11-02T13:57:33.455Z,4.90
2018-11-02T14:00:02.207Z,4.90
2018-11-02T14:02:30.881Z,5.17
2018-11-02T14:04:59.483Z,4.40
2018-11-02T14:07:28.122Z,5.73
2018-11-02T14:09:56.731Z,4.67
2018-11-02T14:12:25.327Z,4.60
2018-11-02T14:14:53.980Z,5.17
2018-11-02T14:17:22.651Z,4.83
2018-11-02T14:19:51.272Z,5.07
2018-11-02T14:22:19.978Z,4.97
2018-11-02T14:24:48.652Z,5.80
2018-11-02T14:27:17.761Z,5.30
2018-11-02T14:29:46.536Z,5.57
2018-11-02T14:32:16.194Z,5.90
2018-11-02T14:34:45.017Z,5.83
2018-11-02T14:37:13.922Z,5.60
2018-11-02T14:39:42.567Z,5.77
2018-11-02T14:42:11.286Z,6.17
2018-11-02T14:44:46.602Z,5.00
2018-11-02T14:47:15.292Z,5.60
2018-11-02T14:49:43.963Z,5.13
2018-11-02T14:52:12.643Z,5.20
2018-11-02T14:54:41.306Z,4.83
2018-11-02T14:57:09.918Z,4.90
2018-11-02T14:59:38.632Z,4.87
2018-11-02T15:02:07.264Z,4.97
2018-11-02T15:04:35.999Z,5.40
2018-11-02T15:07:04.675Z,4.93
2018-11-02T15:09:33.345Z,5.23
2018-11-02T15:12:01.986Z,5.73
2018-11-02T15:14:30.610Z,5.00
2018-11-02T15:16:59.307Z,5.13
2018-11-02T15:19:27.989Z,5.30
2018-11-02T15:21:56.657Z,5.43
2018-11-02T15:24:25.331Z,4.80
2018-11-02T15:26:54.982Z,4.77
2018-11-02T15:29:23.609Z,4.90
2018-11-02T15:31:52.238Z,4.60
2018-11-02T15:34:20.911Z,7.20
2018-11-02T15:36:49.620Z,7.50
2018-11-02T15:39:18.232Z,8.00
2018-11-02T15:41:46.826Z,7.20
2018-11-02T15:44:15.564Z,6.53
2018-11-02T15:46:44.158Z,5.50
2018-11-02T15:49:12.819Z,5.97
2018-11-02T15:51:41.508Z,5.40
2018-11-02T15:54:10.218Z,5.50
2018-11-02T15:56:38.926Z,4.80
2018-11-02T15:59:07.571Z,5.40
2018-11-02T16:01:36.254Z,4.80
2018-11-02T16:04:05.408Z,5.70
2018-11-02T16:06:34.046Z,4.70
2018-11-02T16:09:02.775Z,5.43
2018-11-02T16:11:31.431Z,4.97
2018-11-02T16:14:00.191Z,5.10
2018-11-02T16:16:28.840Z,5.37
2018-11-02T16:18:57.619Z,5.10
2018-11-02T16:21:26.250Z,4.33
2018-11-02T16:23:55.229Z,5.53
2018-11-02T16:26:23.858Z,4.30
2018-11-02T16:28:52.529Z,4.87
2018-11-02T16:31:21.158Z,4.67
2018-11-02T16:33:49.797Z,4.57
2018-11-02T16:38:59.837Z,5.00
2018-11-02T16:41:29.108Z,5.00
2018-11-02T16:43:58.124Z,4.53
2018-11-02T16:46:26.497Z,4.77
2018-11-02T16:48:55.358Z,5.20
2018-11-02T16:51:24.040Z,4.47
2018-11-02T16:53:52.833Z,4.33
2018-11-02T16:56:21.512Z,4.07
2018-11-02T16:58:50.218Z,4.80
2018-11-02T17:01:19.189Z,5.00
2018-11-02T17:03:48.318Z,4.43
2018-11-02T17:06:17.012Z,4.70
2018-11-02T17:08:45.689Z,4.80
2018-11-02T17:11:14.416Z,5.30
2018-11-02T17:13:43.750Z,4.63
2018-11-02T17:16:12.500Z,5.80
2018-11-02T17:18:41.264Z,5.87
2018-11-02T17:21:09.969Z,5.30
2018-11-02T17:23:38.995Z,5.63
2018-11-02T17:26:07.952Z,5.93
2018-11-02T17:28:36.565Z,5.20
2018-11-02T17:31:05.420Z,5.60
2018-11-02T17:33:34.247Z,6.03
2018-11-02T17:36:02.916Z,6.73
2018-11-02T17:38:31.615Z,9.03
2018-11-02T17:41:00.286Z,8.47
2018-11-02T17:43:28.891Z,9.73
2018-11-02T17:45:57.546Z,7.40
2018-11-02T17:48:26.225Z,8.27
2018-11-02T17:50:54.916Z,7.40
2018-11-02T17:53:23.631Z,9.80
2018-11-02T17:55:52.245Z,8.03
2018-11-02T17:58:20.878Z,8.33
2018-11-02T18:00:49.869Z,9.70
2018-11-02T18:03:18.550Z,10.30
2018-11-02T18:05:47.215Z,9.10
2018-11-02T18:08:16.429Z,10.07
2018-11-02T18:10:45.068Z,11.37
2018-11-02T18:13:13.759Z,10.70
2018-11-02T18:15:42.745Z,9.10
2018-11-02T18:20:56.493Z,9.70
2018-11-02T18:23:26.038Z,9.40
2018-11-02T18:25:55.780Z,10.30
2018-11-02T18:28:25.080Z,11.47
2018-11-02T18:30:54.714Z,10.00
2018-11-02T18:33:23.707Z,10.67
2018-11-02T18:35:57.919Z,12.87
2018-11-02T18:38:26.774Z,11.87
2018-11-02T18:40:55.420Z,9.80
2018-11-02T18:43:24.117Z,10.03
2018-11-02T18:45:52.793Z,10.37
2018-11-02T18:48:22.276Z,10.23
2018-11-02T18:50:52.456Z,9.33
2018-11-02T18:53:21.115Z,9.47
2018-11-02T18:55:49.740Z,9.07
2018-11-02T18:58:18.940Z,9.73
2018-11-02T19:00:47.594Z,8.40
2018-11-02T19:03:16.289Z,9.40
2018-11-02T19:05:44.968Z,10.00
2018-11-02T19:08:13.659Z,10.90
2018-11-02T19:10:42.277Z,11.70
2018-11-02T19:13:10.970Z,10.20
2018-11-02T19:15:39.634Z,10.03
2018-11-02T19:18:08.518Z,10.30
2018-11-02T19:20:37.487Z,9.60
2018-11-02T19:23:06.138Z,10.93
2018-11-02T19:25:34.831Z,11.13
2018-11-02T19:28:03.540Z,9.77
2018-11-02T19:30:32.222Z,12.23
2018-11-02T19:33:02.745Z,11.10
2018-11-02T19:35:31.728Z,10.83
2018-11-02T19:38:00.387Z,11.27
2018-11-02T19:40:28.967Z,13.20
2018-11-02T19:42:57.637Z,11.73
2018-11-02T19:45:26.367Z,11.80
2018-11-02T19:47:56.059Z,12.30
2018-11-02T19:50:24.810Z,12.83
2018-11-02T19:52:53.501Z,11.67
2018-11-02T19:55:22.275Z,11.67
2018-11-02T19:57:50.815Z,12.50
2018-11-02T20:00:20.175Z,11.07
2018-11-02T20:02:48.838Z,13.73
2018-11-02T20:05:18.846Z,11.43
2018-11-02T20:07:47.489Z,12.73
2018-11-02T20:10:17.246Z,13.40
2018-11-02T20:12:46.402Z,12.87
2018-11-02T20:15:17.566Z,13.70
2018-11-02T20:17:48.734Z,14.47
2018-11-02T20:20:17.872Z,15.17
2018-11-02T20:22:46.806Z,15.23
2018-11-02T20:25:16.901Z,14.77
2018-11-02T20:27:45.682Z,15.40
2018-11-02T20:30:16.218Z,17.57
2018-11-02T20:32:45.042Z,16.97
2018-11-02T20:35:14.237Z,16.90
2018-11-02T20:37:42.961Z,17.50
2018-11-02T20:40:14.175Z,20.50
2018-11-02T20:42:43.777Z,18.97
2018-11-02T20:45:12.641Z,21.70
2018-11-02T20:47:47.139Z,21.00
2018-11-02T20:50:15.977Z,20.47
2018-11-02T20:52:44.742Z,20.90
2018-11-02T20:55:14.422Z,19.93
2018-11-02T20:57:43.424Z,20.83
2018-11-02T21:00:21.533Z,20.67
2018-11-02T21:02:50.444Z,19.30
2018-11-02T21:05:19.821Z,20.57
2018-11-02T21:07:49.096Z,19.73
2018-11-02T21:10:23.496Z,22.40
2018-11-02T21:12:52.255Z,22.50
2018-11-02T21:15:22.136Z,23.37
2018-11-02T21:17:52.193Z,21.10
2018-11-02T21:20:22.520Z,21.77
2018-11-02T21:22:51.238Z,21.00
2018-11-02T21:25:20.090Z,22.30
2018-11-02T21:27:49.185Z,24.67
2018-11-02T21:30:19.854Z,23.93
2018-11-02T21:32:49.113Z,23.97
2018-11-02T21:35:18.552Z,25.70
2018-11-02T21:37:47.724Z,22.50
2018-11-02T21:40:17.761Z,24.63
2018-11-02T21:42:46.485Z,24.00
2018-11-02T21:45:16.706Z,28.20
2018-11-02T21:47:45.745Z,26.30
2018-11-02T21:50:15.086Z,26.07
2018-11-02T21:52:43.761Z,26.43
2018-11-02T21:55:12.686Z,25.27
2018-11-02T21:57:41.333Z,24.40
2018-11-02T22:00:12.769Z,26.47
2018-11-02T22:02:41.873Z,26.10
2018-11-02T22:05:11.855Z,26.77
2018-11-02T22:07:41.082Z,25.97
2018-11-02T22:10:10.527Z,27.60
2018-11-02T22:12:39.565Z,28.00
2018-11-02T22:15:08.998Z,25.63
2018-11-02T22:17:37.779Z,28.43
2018-11-02T22:20:07.983Z,29.03
2018-11-02T22:22:36.705Z,27.33
2018-11-02T22:25:06.275Z,25.47
2018-11-02T22:27:35.045Z,27.87
2018-11-02T22:30:04.015Z,25.60
2018-11-02T22:32:32.732Z,30.63
2018-11-02T22:35:01.384Z,28.70
2018-11-02T22:37:30.119Z,33.77
2018-11-02T22:39:58.746Z,33.37
2018-11-02T22:42:27.447Z,34.47
2018-11-02T22:44:56.317Z,32.63
2018-11-02T22:47:24.966Z,33.53
2018-11-02T22:50:00.520Z,31.17
2018-11-02T22:52:29.129Z,33.03
2018-11-02T22:54:57.819Z,34.77
2018-11-02T22:57:26.509Z,37.70
2018-11-02T22:59:55.233Z,35.90
2018-11-02T23:02:23.898Z,38.50
2018-11-02T23:04:52.525Z,32.40
2018-11-02T23:07:21.260Z,33.57
2018-11-02T23:09:49.961Z,36.67
2018-11-02T23:12:18.711Z,40.87
2018-11-02T23:14:47.391Z,43.07
2018-11-02T23:17:16.227Z,44.27
2018-11-02T23:19:45.281Z,44.13
2018-11-02T23:22:13.974Z,41.43
2018-11-02T23:24:42.697Z,38.00
2018-11-02T23:27:18.140Z,31.00
2018-11-02T23:29:46.755Z,28.27
2018-11-02T23:32:15.367Z,27.97
2018-11-02T23:34:44.078Z,28.53
2018-11-02T23:37:12.732Z,30.40
2018-11-02T23:39:41.574Z,30.10
2018-11-02T23:42:10.306Z,30.07
2018-11-02T23:44:39.001Z,32.10
2018-11-02T23:47:07.586Z,33.50
2018-11-02T23:49:36.266Z,33.07
2018-11-02T23:52:05.006Z,35.33
2018-11-02T23:54:33.630Z,36.00
2018-11-02T23:57:02.309Z,32.90
2018-11-02T23:59:31.018Z,35.43
